createdAt,value
2023-10-26T00:02:18.342Z,5.10
2023-10-26T00:04:45.214Z,4.60
2023-10-26T00:07:11.968Z,5.80
2023-10-26T00:09:38.549Z,4.80
2023-10-26T00:12:05.880Z,7.40
2023-10-26T00:14:34.667Z,5.90
2023-10-26T00:17:01.229Z,4.80
2023-10-26T00:19:28.017Z,7.00
2023-10-26T00:21:54.559Z,5.80
2023-10-26T00:24:21.120Z,5.80
2023-10-26T00:26:48.030Z,4.60
2023-10-26T00:29:14.570Z,5.30
2023-10-26T00:31:41.208Z,4.60
2023-10-26T00:34:08.296Z,4.80
2023-10-26T00:36:34.833Z,4.50
2023-10-26T00:39:01.329Z,6.30
2023-10-26T00:41:28.732Z,6.40
2023-10-26T00:43:55.208Z,4.10
2023-10-26T00:46:22.062Z,4.90
2023-10-26T00:48:48.778Z,4.00
2023-10-26T00:51:15.599Z,6.00
2023-10-26T00:53:42.288Z,4.90
2023-10-26T00:56:09.695Z,5.80
2023-10-26T00:58:36.152Z,6.40
2023-10-26T01:01:02.641Z,5.50
2023-10-26T01:03:30.230Z,4.70
2023-10-26T01:05:56.750Z,4.90
2023-10-26T01:08:24.593Z,6.60
2023-10-26T01:10:52.301Z,5.50
2023-10-26T01:13:19.390Z,5.70
2023-10-26T01:15:45.902Z,7.20
2023-10-26T01:18:13.194Z,6.30
2023-10-26T01:20:45.308Z,4.70
2023-10-26T01:23:13.424Z,4.70
2023-10-26T01:25:41.164Z,4.00
2023-10-26T01:28:11.154Z,3.30
2023-10-26T01:30:41.692Z,5.90
2023-10-26T01:33:08.278Z,4.40
2023-10-26T01:35:42.254Z,6.00
2023-10-26T01:38:08.909Z,5.30
2023-10-26T01:40:35.372Z,6.60
2023-10-26T01:43:03.388Z,4.30
2023-10-26T01:45:30.009Z,4.60
2023-10-26T01:47:56.916Z,5.20
2023-10-26T01:50:23.796Z,4.50
2023-10-26T01:52:50.411Z,4.90
2023-10-26T01:55:17.451Z,5.80
2023-10-26T01:57:44.520Z,5.30
2023-10-26T02:00:12.062Z,6.60
2023-10-26T02:02:42.293Z,4.40
2023-10-26T02:05:09.281Z,5.70
2023-10-26T02:07:37.004Z,5.40
2023-10-26T02:10:03.747Z,5.20
2023-10-26T02:12:31.320Z,7.00
2023-10-26T02:14:57.904Z,5.10
2023-10-26T02:17:24.446Z,4.00
2023-10-26T02:19:52.858Z,6.80
2023-10-26T02:22:19.515Z,6.80
2023-10-26T02:24:46.435Z,5.60
2023-10-26T02:27:13.300Z,6.70
2023-10-26T02:29:39.812Z,5.00
2023-10-26T02:32:07.670Z,6.00
2023-10-26T02:34:34.297Z,5.10
2023-10-26T02:37:02.636Z,5.90
2023-10-26T02:39:29.568Z,7.00
2023-10-26T02:41:56.167Z,7.60
2023-10-26T02:44:22.669Z,7.00
2023-10-26T02:46:49.236Z,6.00
2023-10-26T02:49:18.288Z,6.20
2023-10-26T02:54:11.705Z,6.80
2023-10-26T02:56:38.340Z,6.40
2023-10-26T02:59:05.069Z,4.90
2023-10-26T03:01:35.456Z,8.70
2023-10-26T03:04:06.332Z,8.50
2023-10-26T03:06:39.715Z,6.40
2023-10-26T03:09:06.669Z,4.50
2023-10-26T03:11:33.349Z,5.70
2023-10-26T03:14:02.787Z,7.80
2023-10-26T03:18:59.655Z,6.50
2023-10-26T03:21:26.801Z,9.00
2023-10-26T03:23:53.695Z,7.90
2023-10-26T03:26:22.984Z,6.80
2023-10-26T03:28:50.549Z,7.40
2023-10-26T03:31:20.280Z,6.70
2023-10-26T03:33:46.856Z,7.40
2023-10-26T03:36:16.935Z,6.00
2023-10-26T03:38:44.486Z,7.60
2023-10-26T03:41:12.870Z,9.20
2023-10-26T03:43:40.275Z,6.20
2023-10-26T03:46:07.018Z,7.50
2023-10-26T03:48:35.097Z,6.60
2023-10-26T03:51:02.349Z,6.00
2023-10-26T03:53:29.167Z,6.50
2023-10-26T03:55:55.928Z,9.30
2023-10-26T03:58:23.090Z,7.60
2023-10-26T04:00:52.188Z,5.90
2023-10-26T04:03:18.863Z,5.90
2023-10-26T04:05:45.540Z,6.50
2023-10-26T04:08:13.238Z,7.50
2023-10-26T04:10:41.772Z,6.40
2023-10-26T04:13:08.313Z,6.90
2023-10-26T04:15:34.920Z,5.60
2023-10-26T04:18:05.049Z,6.50
2023-10-26T04:20:31.616Z,5.80
2023-10-26T04:22:58.309Z,8.20
2023-10-26T04:25:42.190Z,6.70
2023-10-26T04:28:16.616Z,7.10
2023-10-26T04:31:06.778Z,8.10
2023-10-26T04:33:33.830Z,8.00
2023-10-26T04:36:01.658Z,8.40
2023-10-26T04:38:28.232Z,6.60
2023-10-26T04:40:55.288Z,7.60
2023-10-26T04:43:21.882Z,6.90
2023-10-26T04:45:49.338Z,7.90
2023-10-26T04:48:16.102Z,8.40
2023-10-26T04:50:42.867Z,6.80
2023-10-26T04:53:11.787Z,6.70
2023-10-26T04:55:39.832Z,7.40
2023-10-26T04:58:06.444Z,6.30
2023-10-26T05:00:32.940Z,6.40
2023-10-26T05:03:01.451Z,6.40
2023-10-26T05:05:28.254Z,9.00
2023-10-26T05:07:55.323Z,5.90
2023-10-26T05:10:22.206Z,7.70
2023-10-26T05:12:50.078Z,7.50
2023-10-26T05:15:16.983Z,7.10
2023-10-26T05:17:46.136Z,7.30
2023-10-26T05:22:40.722Z,7.20
2023-10-26T05:25:11.042Z,8.50
2023-10-26T05:27:37.814Z,7.60
2023-10-26T05:30:05.952Z,6.90
2023-10-26T05:32:33.356Z,7.70
2023-10-26T05:35:04.652Z,9.70
2023-10-26T05:37:31.590Z,7.60
2023-10-26T05:39:58.211Z,7.90
2023-10-26T05:42:24.820Z,8.40
2023-10-26T05:44:51.638Z,7.40
2023-10-26T05:47:21.982Z,7.00
2023-10-26T05:49:48.906Z,7.70
2023-10-26T05:52:16.083Z,7.20
2023-10-26T05:54:43.367Z,6.20
2023-10-26T05:57:11.189Z,7.30
2023-10-26T05:59:38.648Z,7.30
2023-10-26T06:02:05.238Z,7.10
2023-10-26T06:04:32.343Z,6.70
2023-10-26T06:06:59.028Z,6.50
2023-10-26T06:09:25.750Z,7.50
2023-10-26T06:11:52.678Z,7.30
2023-10-26T06:14:19.294Z,8.80
2023-10-26T06:16:48.021Z,6.90
2023-10-26T06:19:15.347Z,7.80
2023-10-26T06:21:42.704Z,8.30
2023-10-26T06:24:10.321Z,8.70
2023-10-26T06:26:36.754Z,5.80
2023-10-26T06:29:03.503Z,8.30
2023-10-26T06:31:30.414Z,7.20
2023-10-26T06:33:57.110Z,8.70
2023-10-26T06:36:24.428Z,7.20
2023-10-26T06:38:55.263Z,6.50
2023-10-26T06:41:21.815Z,6.70
2023-10-26T06:55:44.405Z,6.00
2023-10-26T06:58:11.997Z,6.90
2023-10-26T07:00:39.216Z,7.60
2023-10-26T07:03:06.700Z,5.80
2023-10-26T07:05:34.966Z,6.40
2023-10-26T07:08:02.992Z,5.80
2023-10-26T07:10:32.900Z,7.50
2023-10-26T07:13:00.849Z,6.30
2023-10-26T07:15:28.312Z,7.30
2023-10-26T07:17:56.456Z,7.30
2023-10-26T07:20:23.797Z,6.30
2023-10-26T07:22:51.030Z,6.30
2023-10-26T07:25:18.384Z,8.30
2023-10-26T07:27:45.565Z,6.90
2023-10-26T07:30:13.637Z,7.60
2023-10-26T07:32:41.063Z,7.00
2023-10-26T07:35:08.789Z,6.00
2023-10-26T07:37:36.352Z,9.00
2023-10-26T07:40:28.094Z,7.30
2023-10-26T07:42:51.171Z,7.30
2023-10-26T07:45:19.702Z,8.10
2023-10-26T07:47:48.047Z,6.20
2023-10-26T07:50:18.856Z,5.70
2023-10-26T07:52:46.080Z,8.40
2023-10-26T07:55:13.782Z,7.10
2023-10-26T07:57:43.603Z,10.50
2023-10-26T08:00:13.158Z,12.10
2023-10-26T08:02:41.435Z,7.00
2023-10-26T08:05:11.086Z,7.60
2023-10-26T08:07:38.936Z,6.60
2023-10-26T08:10:07.034Z,17.80
2023-10-26T08:12:34.250Z,8.00
2023-10-26T08:16:11.227Z,5.50
2023-10-26T08:17:51.763Z,8.00
2023-10-26T08:20:19.267Z,7.70
2023-10-26T08:22:46.505Z,6.70
2023-10-26T08:25:15.405Z,7.60
2023-10-26T08:27:45.600Z,6.00
2023-10-26T08:30:13.378Z,6.30
2023-10-26T08:32:40.856Z,5.50
2023-10-26T08:35:09.164Z,6.60
2023-10-26T08:37:36.417Z,6.40
2023-10-26T08:40:04.509Z,5.60
2023-10-26T08:42:32.204Z,5.90
2023-10-26T08:44:59.451Z,7.80
2023-10-26T08:47:26.929Z,8.20
2023-10-26T08:50:08.327Z,7.50
2023-10-26T08:52:44.565Z,8.70
2023-10-26T08:55:11.848Z,7.90
2023-10-26T08:57:49.677Z,8.00
2023-10-26T09:00:17.912Z,11.10
2023-10-26T09:02:50.020Z,9.10
2023-10-26T09:05:17.657Z,9.90
2023-10-26T09:07:45.414Z,9.00
2023-10-26T09:10:12.928Z,10.20
2023-10-26T09:12:40.285Z,8.50
2023-10-26T09:15:08.432Z,7.50
2023-10-26T09:17:36.206Z,7.20
2023-10-26T09:20:22.282Z,8.30
2023-10-26T09:22:49.853Z,7.90
2023-10-26T09:25:17.392Z,9.30
2023-10-26T09:27:45.934Z,10.20
2023-10-26T09:30:29.860Z,7.00
2023-10-26T09:33:00.638Z,9.60
2023-10-26T09:35:32.493Z,6.70
2023-10-26T09:38:00.478Z,6.00
2023-10-26T09:40:28.703Z,6.00
2023-10-26T09:42:59.471Z,8.80
2023-10-26T09:45:28.678Z,9.30
2023-10-26T09:47:56.219Z,10.40
2023-10-26T09:50:23.577Z,5.90
2023-10-26T09:52:52.422Z,6.00
2023-10-26T09:55:19.756Z,8.10
2023-10-26T09:57:53.515Z,6.90
2023-10-26T10:00:21.416Z,9.10
2023-10-26T10:03:11.675Z,9.90
2023-10-26T10:05:40.236Z,9.20
2023-10-26T10:08:07.847Z,8.00
2023-10-26T10:10:35.473Z,7.20
2023-10-26T10:13:03.046Z,8.90
2023-10-26T10:15:48.193Z,9.90
2023-10-26T10:18:16.055Z,9.40
2023-10-26T10:20:43.553Z,8.40
2023-10-26T10:23:12.364Z,9.20
2023-10-26T10:25:52.648Z,7.60
2023-10-26T10:28:21.435Z,7.70
2023-10-26T10:30:57.347Z,9.70
2023-10-26T10:33:27.564Z,5.90
2023-10-26T10:36:20.841Z,6.70
2023-10-26T10:38:50.613Z,9.10
2023-10-26T10:41:18.050Z,7.30
2023-10-26T10:43:51.420Z,10.30
2023-10-26T10:46:29.800Z,7.60
2023-10-26T10:49:02.687Z,6.60
2023-10-26T10:51:33.016Z,7.20
2023-10-26T10:54:11.235Z,6.80
2023-10-26T10:56:49.928Z,7.70
2023-10-26T10:59:23.154Z,7.20
2023-10-26T11:02:13.798Z,6.10
2023-10-26T11:07:31.844Z,7.40
2023-10-26T11:10:00.628Z,8.80
2023-10-26T11:12:31.419Z,9.10
2023-10-26T11:14:59.593Z,9.70
2023-10-26T11:17:28.299Z,7.50
2023-10-26T11:19:56.158Z,7.90
2023-10-26T11:22:23.512Z,8.80
2023-10-26T11:24:50.993Z,9.00
2023-10-26T11:27:19.672Z,5.70
2023-10-26T11:30:28.733Z,8.00
2023-10-26T11:32:56.136Z,7.20
2023-10-26T11:35:24.767Z,7.20
2023-10-26T11:37:57.416Z,7.90
2023-10-26T11:40:54.409Z,8.30
2023-10-26T11:43:38.002Z,4.70
2023-10-26T11:46:05.593Z,5.50
2023-10-26T11:48:34.080Z,7.90
2023-10-26T11:51:01.604Z,5.70
2023-10-26T11:53:28.937Z,5.90
2023-10-26T11:55:56.225Z,6.90
2023-10-26T11:58:23.632Z,8.10
2023-10-26T12:00:50.940Z,6.90
2023-10-26T12:03:18.192Z,6.80
2023-10-26T12:05:45.572Z,7.30
2023-10-26T12:08:13.155Z,8.50
2023-10-26T12:10:41.662Z,6.40
2023-10-26T12:13:09.078Z,7.80
2023-10-26T12:15:37.700Z,7.40
2023-10-26T12:18:05.221Z,7.00
2023-10-26T12:20:32.826Z,4.70
2023-10-26T12:23:00.139Z,6.40
2023-10-26T12:25:27.374Z,5.40
2023-10-26T12:28:21.025Z,6.60
2023-10-26T12:30:42.117Z,9.60
2023-10-26T12:33:10.646Z,4.70
2023-10-26T12:35:37.907Z,6.40
2023-10-26T12:38:05.084Z,6.60
2023-10-26T12:40:33.158Z,5.90
2023-10-26T12:43:00.419Z,6.80
2023-10-26T12:45:27.739Z,6.30
2023-10-26T12:47:55.151Z,6.00
2023-10-26T12:50:22.379Z,5.10
2023-10-26T12:52:49.567Z,6.30
2023-10-26T12:55:16.940Z,6.70
2023-10-26T12:57:45.076Z,5.30
2023-10-26T13:00:13.298Z,4.10
2023-10-26T13:02:40.528Z,4.80
2023-10-26T13:05:08.057Z,5.30
2023-10-26T13:07:35.629Z,3.70
2023-10-26T13:10:04.546Z,5.50
2023-10-26T13:12:32.203Z,6.60
2023-10-26T13:15:04.695Z,4.60
2023-10-26T13:17:33.623Z,6.10
2023-10-26T13:20:01.327Z,5.10
2023-10-26T13:22:28.474Z,5.20
2023-10-26T13:24:55.839Z,4.60
2023-10-26T13:27:23.521Z,5.30
2023-10-26T13:29:50.819Z,5.30
2023-10-26T13:32:18.149Z,3.60
2023-10-26T13:34:45.558Z,5.30
2023-10-26T13:37:13.230Z,4.50
2023-10-26T13:39:40.574Z,4.20
2023-10-26T13:42:07.982Z,4.50
2023-10-26T13:44:35.351Z,6.60
2023-10-26T13:47:02.674Z,6.80
2023-10-26T13:49:29.928Z,5.30
2023-10-26T13:51:57.160Z,5.60
2023-10-26T13:54:25.472Z,5.80
2023-10-26T13:56:54.363Z,4.50
2023-10-26T13:59:21.815Z,6.80
2023-10-26T14:01:50.838Z,4.80
2023-10-26T14:04:18.202Z,9.10
2023-10-26T14:06:45.420Z,10.50
2023-10-26T14:09:12.783Z,6.20
2023-10-26T14:11:39.930Z,5.90
2023-10-26T14:14:07.202Z,5.30
2023-10-26T14:16:35.271Z,4.20
2023-10-26T14:19:05.451Z,5.30
2023-10-26T14:21:32.739Z,6.50
2023-10-26T14:24:00.039Z,6.20
2023-10-26T14:26:27.315Z,4.70
2023-10-26T14:28:54.839Z,6.00
2023-10-26T14:31:23.624Z,6.20
2023-10-26T14:33:52.579Z,6.40
2023-10-26T14:36:20.623Z,6.70
2023-10-26T14:38:50.809Z,6.10
2023-10-26T14:41:18.165Z,4.30
2023-10-26T14:43:45.375Z,3.80
2023-10-26T14:46:12.574Z,4.80
2023-10-26T14:48:39.966Z,6.20
2023-10-26T14:51:07.211Z,5.00
2023-10-26T14:53:36.827Z,5.50
2023-10-26T14:56:05.665Z,8.10
2023-10-26T14:58:32.957Z,5.30
2023-10-26T15:01:00.417Z,4.50
2023-10-26T15:03:27.956Z,5.10
2023-10-26T15:05:55.180Z,6.00
2023-10-26T15:08:22.499Z,7.70
2023-10-26T15:10:51.669Z,6.10
2023-10-26T15:13:20.254Z,5.90
2023-10-26T15:15:49.049Z,5.30
2023-10-26T15:18:16.332Z,6.80
2023-10-26T15:20:43.574Z,4.80
2023-10-26T15:23:11.820Z,5.20
2023-10-26T15:25:39.130Z,7.50
2023-10-26T15:28:06.524Z,5.20
2023-10-26T15:30:34.274Z,4.40
2023-10-26T15:33:01.829Z,5.40
2023-10-26T15:35:29.437Z,5.00
2023-10-26T15:37:56.841Z,8.20
2023-10-26T15:40:25.378Z,6.40
2023-10-26T15:42:53.643Z,7.10
2023-10-26T15:45:49.659Z,7.10
2023-10-26T15:48:19.337Z,6.50
2023-10-26T15:51:07.235Z,6.00
2023-10-26T15:53:34.621Z,7.50
2023-10-26T15:56:15.084Z,13.50
2023-10-26T15:58:42.476Z,12.40
2023-10-26T16:01:12.540Z,12.40
2023-10-26T16:04:03.165Z,11.40
2023-10-26T16:06:34.116Z,6.90
2023-10-26T16:09:04.027Z,6.80
2023-10-26T16:11:32.432Z,7.40
2023-10-26T16:14:04.595Z,9.00
2023-10-26T16:16:31.918Z,7.50
2023-10-26T16:18:59.614Z,7.30
2023-10-26T16:21:47.818Z,9.90
2023-10-26T16:24:15.047Z,8.20
2023-10-26T16:26:42.852Z,11.70
2023-10-26T16:29:10.328Z,11.70
2023-10-26T16:31:38.741Z,10.70
2023-10-26T16:34:28.265Z,8.70
2023-10-26T16:36:57.414Z,8.00
2023-10-26T16:39:25.160Z,11.10
2023-10-26T16:41:52.982Z,14.10
2023-10-26T16:44:22.319Z,13.40
2023-10-26T16:47:09.864Z,8.40
2023-10-26T16:49:39.870Z,6.60
2023-10-26T16:52:07.463Z,6.50
2023-10-26T16:54:34.807Z,5.30
2023-10-26T16:59:39.562Z,5.90
2023-10-26T17:02:06.982Z,5.80
2023-10-26T17:04:36.630Z,6.50
2023-10-26T17:07:05.253Z,6.20
2023-10-26T17:09:32.756Z,5.70
2023-10-26T17:12:01.771Z,5.70
2023-10-26T17:14:28.964Z,5.40
2023-10-26T17:16:58.669Z,7.20
2023-10-26T17:19:26.275Z,6.60
2023-10-26T17:21:55.818Z,6.30
2023-10-26T17:24:23.053Z,6.50
2023-10-26T17:26:51.285Z,5.80
2023-10-26T17:29:19.332Z,5.30
2023-10-26T17:31:47.277Z,5.10
2023-10-26T17:34:16.031Z,6.10
2023-10-26T17:36:56.496Z,6.80
2023-10-26T17:39:26.286Z,7.20
2023-10-26T17:41:56.857Z,5.80
2023-10-26T17:44:26.950Z,6.10
2023-10-26T17:46:54.549Z,6.00
2023-10-26T17:49:22.623Z,6.40
2023-10-26T17:51:52.542Z,6.40
2023-10-26T17:54:23.714Z,5.80
2023-10-26T17:56:51.130Z,6.70
2023-10-26T17:59:22.746Z,7.60
2023-10-26T18:01:50.228Z,6.60
2023-10-26T18:04:18.870Z,7.00
2023-10-26T18:06:46.186Z,6.20
2023-10-26T18:09:14.552Z,6.50
2023-10-26T18:11:44.652Z,6.60
2023-10-26T18:14:14.049Z,8.40
2023-10-26T18:16:44.631Z,7.10
2023-10-26T18:19:12.467Z,8.60
2023-10-26T18:21:39.721Z,8.40
2023-10-26T18:24:08.026Z,8.10
2023-10-26T18:26:35.301Z,8.40
2023-10-26T18:29:13.332Z,7.90
2023-10-26T18:31:43.407Z,7.20
2023-10-26T18:34:14.399Z,8.00
2023-10-26T18:36:42.727Z,8.10
2023-10-26T18:39:11.808Z,8.80
2023-10-26T18:41:41.468Z,8.10
2023-10-26T18:44:17.305Z,9.30
2023-10-26T18:46:44.544Z,8.40
2023-10-26T18:49:36.814Z,8.30
2023-10-26T18:52:07.738Z,8.80
2023-10-26T18:54:43.343Z,10.40
2023-10-26T18:57:13.447Z,10.00
2023-10-26T19:00:01.480Z,8.50
2023-10-26T19:02:29.177Z,9.70
2023-10-26T19:04:58.376Z,8.00
2023-10-26T19:07:29.369Z,8.40
2023-10-26T19:10:17.358Z,12.70
2023-10-26T19:12:49.667Z,10.80
2023-10-26T19:15:19.336Z,10.40
2023-10-26T19:17:52.555Z,10.70
2023-10-26T19:20:20.724Z,9.10
2023-10-26T19:23:14.896Z,10.70
2023-10-26T19:25:44.755Z,9.40
2023-10-26T19:28:12.046Z,8.10
2023-10-26T19:33:30.958Z,9.70
2023-10-26T19:38:29.778Z,11.50
2023-10-26T19:40:59.894Z,8.00
2023-10-26T19:43:31.145Z,8.70
2023-10-26T19:46:00.073Z,8.10
2023-10-26T19:48:27.685Z,6.90
2023-10-26T19:50:54.888Z,7.30
2023-10-26T19:53:34.914Z,7.30
2023-10-26T19:56:02.223Z,6.90
2023-10-26T19:58:29.734Z,9.60
2023-10-26T20:00:59.290Z,11.00
2023-10-26T20:03:26.675Z,11.70
2023-10-26T20:05:56.515Z,9.10
2023-10-26T20:10:57.836Z,11.00
2023-10-26T20:13:27.521Z,11.60
2023-10-26T20:15:55.764Z,10.40
2023-10-26T20:18:23.850Z,10.40
2023-10-26T20:20:51.080Z,9.60
2023-10-26T20:25:51.056Z,11.40
2023-10-26T20:28:21.002Z,11.50
2023-10-26T20:30:49.301Z,9.00
2023-10-26T20:33:18.445Z,10.00
2023-10-26T20:35:52.502Z,10.60
2023-10-26T20:38:21.134Z,9.50
2023-10-26T20:40:49.296Z,9.00
2023-10-26T20:43:16.723Z,10.30
2023-10-26T20:45:44.037Z,9.70
2023-10-26T20:48:14.125Z,8.60
2023-10-26T20:50:43.008Z,9.50
2023-10-26T20:53:10.355Z,9.00
2023-10-26T20:55:37.418Z,10.10
2023-10-26T20:58:06.961Z,9.90
2023-10-26T21:00:35.090Z,9.30
2023-10-26T21:03:05.453Z,12.40
2023-10-26T21:05:32.952Z,8.50
2023-10-26T21:08:00.162Z,8.40
2023-10-26T21:10:30.217Z,9.10
2023-10-26T21:12:57.588Z,9.60
2023-10-26T21:15:46.154Z,8.40
2023-10-26T21:18:15.445Z,9.20
2023-10-26T21:20:44.455Z,7.20
2023-10-26T21:23:11.767Z,8.00
2023-10-26T21:25:38.907Z,7.90
2023-10-26T21:28:06.089Z,7.30
2023-10-26T21:30:38.975Z,8.10
2023-10-26T21:33:06.442Z,7.40
2023-10-26T21:35:37.406Z,6.60
2023-10-26T21:38:06.484Z,6.00
2023-10-26T21:40:37.599Z,7.00
2023-10-26T21:43:06.001Z,7.00
2023-10-26T21:45:38.273Z,5.50
2023-10-26T21:48:08.503Z,5.70
2023-10-26T21:50:35.749Z,7.20
2023-10-26T21:53:06.710Z,5.10
2023-10-26T21:55:40.791Z,7.00
2023-10-26T21:58:11.573Z,7.70
2023-10-26T22:00:38.828Z,6.40
2023-10-26T22:05:40.289Z,5.80
2023-10-26T22:08:10.109Z,6.00
2023-10-26T22:10:38.589Z,7.00
2023-10-26T22:13:05.777Z,6.60
2023-10-26T22:15:35.438Z,5.70
2023-10-26T22:18:03.440Z,6.10
2023-10-26T22:20:30.625Z,7.50
2023-10-26T22:22:57.864Z,5.70
2023-10-26T22:25:28.326Z,5.60
2023-10-26T22:27:59.946Z,6.90
2023-10-26T22:30:27.316Z,6.60
2023-10-26T22:32:59.113Z,5.80
2023-10-26T22:35:28.691Z,7.40
2023-10-26T22:37:56.046Z,6.80
2023-10-26T22:40:25.339Z,5.60
2023-10-26T22:42:54.924Z,7.70
2023-10-26T22:45:25.377Z,6.80
2023-10-26T22:47:54.431Z,6.00
2023-10-26T22:50:22.596Z,6.20
2023-10-26T22:52:49.737Z,7.20
2023-10-26T22:55:17.321Z,7.10
2023-10-26T22:57:46.534Z,8.70
2023-10-26T23:00:16.464Z,5.30
2023-10-26T23:03:42.115Z,6.70
2023-10-26T23:06:09.891Z,7.00
2023-10-26T23:08:39.264Z,7.60
2023-10-26T23:11:06.805Z,6.40
2023-10-26T23:13:34.150Z,6.50
2023-10-26T23:16:04.561Z,8.10
2023-10-26T23:18:32.457Z,6.90
2023-10-26T23:21:01.790Z,6.70
2023-10-26T23:23:29.898Z,7.20
2023-10-26T23:25:58.088Z,7.60
2023-10-26T23:28:28.155Z,8.60
2023-10-26T23:30:59.646Z,9.00
2023-10-26T23:33:27.460Z,7.10
2023-10-26T23:35:57.510Z,7.20
2023-10-26T23:38:25.268Z,6.20
2023-10-26T23:40:52.425Z,9.40
2023-10-26T23:43:21.070Z,8.20
2023-10-26T23:45:52.790Z,6.70
2023-10-26T23:49:17.704Z,7.40
2023-10-26T23:51:52.716Z,6.80
2023-10-26T23:54:19.875Z,8.40
2023-10-26T23:56:47.042Z,7.30
2023-10-26T23:59:15.708Z,8.90
